Time;durP1;ratioP1;P1;durP2;ratioP2;P2;SDS_P1;SDS_P2;PMS_P1;PMS_P2;Temp;Humidity;BMP_temperature;BMP_pressure;BME280_temperature;BME280_humidity;BME280_pressure;Samples;Min_cycle;Max_cycle;Signal;HPM_P1;HPM_P2
2022/11/08 00:01:38;;;;;;;10.20;2.97;;;12.70;99.90;;;;;;4992896;28;20141;-77
2022/11/08 00:04:06;;;;;;;9.40;2.67;;;12.70;99.90;;;;;;5009399;28;20121;-76
2022/11/08 00:14:45;;;;;;;5.97;2.60;;;12.60;99.90;;;;;;4992606;28;20510;-76
2022/11/08 00:17:13;;;;;;;9.25;2.45;;;12.60;99.90;;;;;;5023676;28;20368;-76
2022/11/08 00:19:39;;;;;;;5.53;2.50;;;12.60;99.90;;;;;;5041555;28;20152;-77
2022/11/08 00:22:04;;;;;;;6.80;2.40;;;12.60;99.90;;;;;;5031931;28;20128;-77
2022/11/08 00:24:30;;;;;;;9.32;2.83;;;12.60;99.90;;;;;;5048586;28;20120;-77
2022/11/08 00:26:55;;;;;;;7.72;2.40;;;12.50;99.90;;;;;;5038127;28;20586;-77
2022/11/08 00:29:21;;;;;;;8.90;3.17;;;12.50;99.90;;;;;;5021758;28;20046;-76
2022/11/08 00:31:46;;;;;;;8.70;2.63;;;12.40;99.90;;;;;;5028526;28;20034;-77
2022/11/08 00:34:12;;;;;;;7.82;2.60;;;12.40;99.90;;;;;;5028523;28;20046;-76
2022/11/08 00:36:38;;;;;;;8.75;2.72;;;12.30;99.90;;;;;;5015668;28;20061;-77
2022/11/08 00:39:03;;;;;;;7.07;2.30;;;12.30;99.90;;;;;;5029948;28;20407;-77
2022/11/08 00:41:29;;;;;;;8.48;2.30;;;12.20;99.90;;;;;;5039896;28;20037;-76
2022/11/08 00:43:54;;;;;;;8.48;2.28;;;12.10;99.90;;;;;;5047921;28;20487;-76
2022/11/08 00:46:20;;;;;;;7.80;2.63;;;12.10;99.90;;;;;;5026720;28;20038;-76
2022/11/08 00:48:45;;;;;;;7.35;2.45;;;12.00;99.90;;;;;;5034217;28;20049;-77
2022/11/08 00:51:11;;;;;;;9.50;2.35;;;12.00;99.90;;;;;;5003505;28;20038;-77
2022/11/08 00:53:38;;;;;;;7.90;2.50;;;11.90;99.90;;;;;;5022727;28;20484;-76
2022/11/08 00:56:06;;;;;;;10.35;2.50;;;11.90;99.90;;;;;;5024419;28;20089;-76
2022/11/08 00:58:32;;;;;;;9.30;3.40;;;11.90;99.90;;;;;;5002060;28;20133;-76
2022/11/08 01:00:59;;;;;;;9.35;3.08;;;11.90;99.90;;;;;;5027693;28;20030;-76
2022/11/08 01:03:25;;;;;;;8.05;2.30;;;11.70;99.90;;;;;;5028207;28;20046;-76
2022/11/08 01:05:53;;;;;;;8.32;2.60;;;11.70;99.90;;;;;;5012954;28;20046;-77
2022/11/08 01:08:21;;;;;;;10.82;3.15;;;11.70;99.90;;;;;;5037617;28;20049;-76
2022/11/08 01:10:49;;;;;;;8.05;2.42;;;11.60;99.90;;;;;;5018936;28;20038;-77
2022/11/08 01:13:16;;;;;;;10.40;2.92;;;11.60;99.90;;;;;;5011052;28;20073;-77
2022/11/08 01:15:43;;;;;;;8.80;2.78;;;11.60;99.90;;;;;;5026303;28;20191;-76
2022/11/08 01:18:11;;;;;;;7.63;2.70;;;11.50;99.90;;;;;;5019388;28;20131;-77
2022/11/08 01:20:41;;;;;;;12.05;3.15;;;11.50;99.90;;;;;;5014420;28;20053;-76
2022/11/08 01:23:08;;;;;;;8.13;2.88;;;11.50;99.90;;;;;;5030666;28;20045;-76
2022/11/08 01:25:38;;;;;;;9.05;2.78;;;11.50;99.90;;;;;;5008348;28;20034;-76
2022/11/08 01:28:05;;;;;;;6.97;3.20;;;11.50;99.90;;;;;;5016691;28;20037;-76
2022/11/08 01:30:31;;;;;;;9.65;2.78;;;11.40;99.90;;;;;;5027767;28;20400;-76
2022/11/08 01:32:57;;;;;;;9.77;3.35;;;11.40;99.90;;;;;;5017821;28;20042;-76
2022/11/08 01:35:22;;;;;;;9.98;3.00;;;11.40;99.90;;;;;;5035495;28;20041;-76
2022/11/08 01:37:49;;;;;;;9.40;3.30;;;11.40;99.90;;;;;;5034589;28;20060;-76
2022/11/08 01:40:15;;;;;;;9.65;2.90;;;11.40;99.90;;;;;;5012992;28;20038;-76
2022/11/08 01:42:40;;;;;;;6.13;2.72;;;11.30;99.90;;;;;;5022266;28;20042;-76
2022/11/08 01:45:08;;;;;;;9.02;3.00;;;11.30;99.90;;;;;;5024671;28;20037;-76
2022/11/08 01:47:34;;;;;;;10.73;3.58;;;11.30;99.90;;;;;;5018008;28;20036;-76
2022/11/08 01:50:17;;;;;;;11.10;3.53;;;11.30;99.90;;;;;;5043350;28;20120;-76
2022/11/08 01:52:52;;;;;;;7.38;3.15;;;11.20;99.90;;;;;;5030328;28;20081;-77
2022/11/08 01:55:26;;;;;;;13.77;3.58;;;11.20;99.90;;;;;;4997734;28;20050;-76
2022/11/08 01:58:02;;;;;;;8.48;3.10;;;11.10;99.90;;;;;;5031768;28;20037;-76
2022/11/08 02:00:28;;;;;;;10.82;3.53;;;11.10;99.90;;;;;;5017520;28;20044;-76
2022/11/08 02:02:58;;;;;;;8.55;3.05;;;11.10;99.90;;;;;;5034190;28;20034;-76
2022/11/08 02:05:23;;;;;;;7.35;3.30;;;11.10;99.90;;;;;;4996440;28;20038;-76
2022/11/08 02:08:03;;;;;;;10.25;3.13;;;11.10;99.90;;;;;;5032333;28;20095;-76
2022/11/08 02:10:41;;;;;;;8.15;3.40;;;11.00;99.90;;;;;;5010736;28;20040;-76
2022/11/08 02:13:14;;;;;;;8.27;3.17;;;11.00;99.90;;;;;;5016314;28;20057;-77
2022/11/08 02:15:39;;;;;;;10.80;3.17;;;11.00;99.90;;;;;;5022021;28;20507;-76
2022/11/08 02:18:05;;;;;;;10.60;3.55;;;10.90;99.90;;;;;;5014522;28;20034;-76
2022/11/08 02:20:32;;;;;;;9.63;3.22;;;10.90;99.90;;;;;;5002020;28;20463;-76
2022/11/08 02:23:14;;;;;;;11.50;3.65;;;10.90;99.90;;;;;;5032548;28;20052;-76
2022/11/08 02:25:40;;;;;;;10.13;3.92;;;10.90;99.90;;;;;;5033182;28;20041;-76
2022/11/08 02:28:05;;;;;;;9.95;3.33;;;10.90;99.90;;;;;;5020668;28;20384;-76
2022/11/08 02:30:35;;;;;;;10.52;3.50;;;10.90;99.90;;;;;;5004144;28;20030;-77
2022/11/08 02:33:22;;;;;;;11.70;3.92;;;10.80;99.90;;;;;;5029633;28;20038;-76
2022/11/08 02:35:53;;;;;;;7.82;3.30;;;10.80;99.90;;;;;;5014136;28;20434;-76
2022/11/08 02:38:19;;;;;;;8.65;3.42;;;10.80;99.90;;;;;;5036802;28;20492;-75
2022/11/08 02:40:53;;;;;;;9.50;3.67;;;10.80;99.90;;;;;;5008044;28;20044;-76
2022/11/08 02:43:20;;;;;;;8.40;3.20;;;10.80;99.90;;;;;;5029634;28;20054;-76
2022/11/08 02:45:46;;;;;;;8.18;3.35;;;10.80;99.90;;;;;;5030273;28;20045;-76
2022/11/08 02:48:12;;;;;;;8.40;3.22;;;10.70;99.90;;;;;;5019524;28;20112;-76
2022/11/08 02:50:37;;;;;;;8.90;3.50;;;10.70;99.90;;;;;;5028222;28;20524;-76
2022/11/08 02:53:03;;;;;;;13.00;4.47;;;10.70;99.90;;;;;;4997298;28;20053;-76
2022/11/08 02:55:29;;;;;;;8.32;3.42;;;10.70;99.90;;;;;;4997395;28;20060;-76
2022/11/08 02:57:55;;;;;;;10.93;3.63;;;10.70;99.90;;;;;;5036116;28;20308;-76
2022/11/08 03:00:21;;;;;;;8.88;3.88;;;10.60;99.90;;;;;;5013162;28;20148;-76
2022/11/08 03:02:50;;;;;;;8.38;3.60;;;10.60;99.90;;;;;;5028212;28;20125;-76
2022/11/08 03:05:19;;;;;;;8.50;3.75;;;10.60;99.90;;;;;;5038997;28;20088;-75
2022/11/08 03:07:45;;;;;;;13.77;3.80;;;10.60;99.90;;;;;;4998134;28;20489;-76
2022/11/08 03:10:12;;;;;;;8.48;3.60;;;10.60;99.90;;;;;;5014933;28;20057;-76
2022/11/08 03:12:38;;;;;;;9.27;3.80;;;10.60;99.90;;;;;;5013551;28;20041;-76
2022/11/08 03:15:05;;;;;;;10.43;3.92;;;10.60;99.90;;;;;;5020511;28;20068;-77
2022/11/08 03:17:31;;;;;;;9.68;3.70;;;10.60;99.90;;;;;;5026161;28;20033;-76
2022/11/08 03:19:56;;;;;;;8.63;3.92;;;10.60;99.90;;;;;;5023893;28;20052;-76
2022/11/08 03:22:22;;;;;;;7.75;3.60;;;10.60;99.90;;;;;;5030831;28;20037;-76
2022/11/08 03:24:47;;;;;;;6.60;3.50;;;10.60;99.90;;;;;;5029743;28;20420;-76
2022/11/08 03:27:14;;;;;;;7.88;3.53;;;10.50;99.90;;;;;;5029338;28;20042;-76
2022/11/08 03:29:40;;;;;;;8.10;3.72;;;10.50;99.90;;;;;;5032705;28;20048;-77
2022/11/08 03:32:06;;;;;;;10.52;4.20;;;10.50;99.90;;;;;;5024482;28;20034;-76
2022/11/08 03:34:32;;;;;;;9.93;4.45;;;10.50;99.90;;;;;;5028449;28;20599;-76
2022/11/08 03:37:00;;;;;;;9.90;4.00;;;10.50;99.90;;;;;;5043710;23;20038;-78
2022/11/08 03:39:27;;;;;;;9.70;3.92;;;10.50;99.90;;;;;;4985532;28;20080;-78
2022/11/08 03:41:54;;;;;;;10.07;3.95;;;10.40;99.90;;;;;;4986213;28;20042;-78
2022/11/08 03:44:23;;;;;;;10.50;3.75;;;10.40;99.90;;;;;;4993218;28;20113;-78
2022/11/08 03:46:49;;;;;;;10.75;4.32;;;10.40;99.90;;;;;;4971030;28;20050;-78
2022/11/08 03:49:16;;;;;;;10.63;4.38;;;10.30;99.90;;;;;;4948998;28;21465;-79
2022/11/08 03:51:42;;;;;;;8.40;4.13;;;10.40;99.90;;;;;;4962768;28;20138;-79
2022/11/08 03:54:09;;;;;;;9.55;4.05;;;10.40;99.90;;;;;;4957767;28;20039;-79
2022/11/08 03:56:35;;;;;;;11.98;4.20;;;10.30;99.90;;;;;;4971574;28;20097;-79
2022/11/08 03:59:01;;;;;;;9.07;3.95;;;10.30;99.90;;;;;;4938886;28;20042;-79
2022/11/08 04:01:27;;;;;;;8.88;4.05;;;10.30;99.90;;;;;;4973455;28;20039;-78
2022/11/08 04:03:53;;;;;;;7.20;4.00;;;10.30;99.90;;;;;;4957763;28;20401;-79
2022/11/08 04:06:18;;;;;;;10.82;4.40;;;10.30;99.90;;;;;;4966274;28;20120;-79
2022/11/08 04:08:44;;;;;;;8.63;3.70;;;10.20;99.90;;;;;;4974590;28;20038;-79
2022/11/08 04:16:39;;;;;;;8.85;4.15;;;10.20;99.90;;;;;;4964394;28;20153;-79
2022/11/08 04:21:52;;;;;;;10.50;3.75;;;10.20;99.90;;;;;;4975549;28;20090;-79
2022/11/08 04:24:19;;;;;;;11.68;4.38;;;10.20;99.90;;;;;;4964455;28;20413;-80
2022/11/08 04:26:48;;;;;;;7.40;3.92;;;10.10;99.90;;;;;;4940139;28;20673;-79
2022/11/08 04:29:14;;;;;;;10.05;3.90;;;10.10;99.90;;;;;;4964959;28;20086;-79
2022/11/08 04:31:41;;;;;;;8.63;4.30;;;10.10;99.90;;;;;;4958264;28;20031;-78
2022/11/08 04:34:07;;;;;;;11.55;3.95;;;10.10;99.90;;;;;;4965039;28;20515;-78
2022/11/08 04:36:34;;;;;;;8.52;4.07;;;10.10;99.90;;;;;;4974020;28;20389;-78
2022/11/08 04:39:03;;;;;;;10.32;3.70;;;10.00;99.90;;;;;;4956349;28;20046;-78
2022/11/08 04:41:30;;;;;;;8.20;3.97;;;10.00;99.90;;;;;;4960091;28;20050;-78
2022/11/08 04:43:57;;;;;;;8.80;3.97;;;10.10;99.90;;;;;;4986218;28;20042;-79
2022/11/08 04:46:25;;;;;;;7.25;3.70;;;10.10;99.90;;;;;;4978377;28;20035;-79
2022/11/08 04:49:01;;;;;;;8.73;3.70;;;10.00;99.90;;;;;;4961373;28;20109;-79
2022/11/08 04:51:30;;;;;;;6.68;3.70;;;10.10;99.90;;;;;;4957511;28;20031;-79
2022/11/08 04:54:01;;;;;;;7.75;3.47;;;10.00;99.90;;;;;;4955138;28;20058;-79
2022/11/08 04:56:31;;;;;;;6.03;3.15;;;10.00;99.90;;;;;;4969430;28;20035;-79
2022/11/08 04:58:59;;;;;;;11.38;4.07;;;10.00;99.90;;;;;;4976553;28;20070;-79
2022/11/08 05:01:30;;;;;;;9.25;3.60;;;10.00;99.90;;;;;;4969415;28;20062;-79
2022/11/08 05:03:57;;;;;;;7.40;3.88;;;10.00;99.90;;;;;;4960840;28;20035;-79
2022/11/08 05:06:33;;;;;;;6.20;3.42;;;10.00;99.90;;;;;;4968966;28;20038;-79
2022/11/08 05:08:59;;;;;;;7.70;3.40;;;10.00;99.90;;;;;;4952189;28;20378;-79
2022/11/08 05:11:27;;;;;;;8.30;3.67;;;10.00;99.90;;;;;;4976798;28;20050;-79
2022/11/08 05:13:53;;;;;;;6.72;3.05;;;10.00;99.90;;;;;;4960168;28;20053;-79
2022/11/08 05:16:24;;;;;;;8.77;3.40;;;10.00;99.90;;;;;;4959400;28;20093;-78
2022/11/08 05:18:50;;;;;;;7.10;3.53;;;10.00;99.90;;;;;;4957504;28;20066;-79
2022/11/08 05:24:05;;;;;;;5.72;3.15;;;10.00;99.90;;;;;;4975270;28;20043;-79
2022/11/08 05:26:36;;;;;;;8.25;3.22;;;10.00;99.90;;;;;;4966660;28;20100;-79
2022/11/08 05:29:02;;;;;;;6.05;3.33;;;9.90;99.90;;;;;;4958220;28;20062;-79
2022/11/08 05:31:29;;;;;;;7.55;3.40;;;9.90;99.90;;;;;;4956812;28;20042;-78
2022/11/08 05:33:55;;;;;;;6.70;3.20;;;9.90;99.90;;;;;;4966964;28;20032;-78
2022/11/08 05:36:22;;;;;;;8.27;3.53;;;10.00;99.90;;;;;;4972102;28;20054;-78
2022/11/08 05:38:51;;;;;;;4.82;2.90;;;10.00;99.90;;;;;;4947557;28;20115;-78
2022/11/08 05:41:20;;;;;;;6.07;2.83;;;9.90;99.90;;;;;;4955680;28;20042;-78
2022/11/08 05:43:49;;;;;;;6.72;3.55;;;9.90;99.90;;;;;;4941822;28;20189;-78
2022/11/08 05:46:16;;;;;;;8.32;3.15;;;9.90;99.90;;;;;;4945233;28;20035;-78
2022/11/08 05:48:48;;;;;;;5.85;3.00;;;9.90;99.90;;;;;;4941560;28;20045;-79
2022/11/08 05:51:15;;;;;;;5.05;2.55;;;9.90;99.90;;;;;;4934526;28;20113;-79
2022/11/08 05:53:42;;;;;;;6.70;2.60;;;9.90;99.90;;;;;;4940788;28;20070;-78
2022/11/08 05:56:08;;;;;;;6.78;3.15;;;10.00;99.90;;;;;;4957352;28;20039;-79
2022/11/08 05:58:36;;;;;;;5.50;2.60;;;9.90;99.90;;;;;;4948816;29;20126;-78
2022/11/08 06:01:08;;;;;;;5.80;2.42;;;10.00;99.90;;;;;;4936137;28;20035;-78
2022/11/08 06:03:35;;;;;;;7.00;2.53;;;10.00;99.90;;;;;;4940855;28;20039;-78
2022/11/08 06:06:06;;;;;;;5.90;2.50;;;10.00;99.90;;;;;;4940574;28;20915;-78
2022/11/08 06:08:33;;;;;;;4.13;2.30;;;10.00;99.90;;;;;;4935980;28;20122;-78
2022/11/08 06:11:14;;;;;;;5.00;2.45;;;10.00;99.90;;;;;;4946562;28;20101;-79
2022/11/08 06:13:41;;;;;;;5.60;2.83;;;10.00;99.90;;;;;;4951684;29;20047;-79
2022/11/08 06:16:13;;;;;;;5.55;2.60;;;9.90;99.90;;;;;;4942063;28;20043;-78
2022/11/08 06:18:40;;;;;;;4.25;2.72;;;9.90;99.90;;;;;;4925548;29;20042;-79
2022/11/08 06:21:10;;;;;;;6.10;2.80;;;9.90;99.90;;;;;;4940024;28;20039;-78
2022/11/08 06:23:36;;;;;;;5.95;2.50;;;9.90;99.90;;;;;;4966002;28;20045;-78
2022/11/08 06:26:03;;;;;;;7.90;2.95;;;9.90;99.90;;;;;;4951632;28;20036;-78
2022/11/08 06:28:30;;;;;;;7.47;2.70;;;9.80;99.90;;;;;;4960404;28;20062;-78
2022/11/08 06:31:00;;;;;;;6.32;2.72;;;9.80;99.90;;;;;;4943401;28;20035;-78
2022/11/08 06:33:27;;;;;;;6.78;2.58;;;9.80;99.90;;;;;;4944125;28;20034;-78
2022/11/08 06:35:53;;;;;;;6.10;2.75;;;9.80;99.90;;;;;;4951180;28;20047;-78
2022/11/08 06:38:20;;;;;;;5.40;2.88;;;9.60;99.90;;;;;;4950365;28;20039;-78
2022/11/08 06:40:47;;;;;;;5.63;3.08;;;9.80;99.90;;;;;;4943215;28;20109;-78
2022/11/08 06:43:14;;;;;;;8.00;3.50;;;9.70;99.90;;;;;;4952098;28;20401;-78
2022/11/08 06:45:41;;;;;;;8.68;3.30;;;9.80;99.90;;;;;;4955389;28;20031;-78
2022/11/08 06:48:08;;;;;;;5.65;3.40;;;9.80;99.90;;;;;;4942056;28;20477;-78
2022/11/08 06:50:34;;;;;;;5.05;3.78;;;9.80;99.90;;;;;;4956830;28;20627;-78
2022/11/08 06:53:03;;;;;;;5.28;3.30;;;9.90;99.90;;;;;;4940632;29;20509;-78
2022/11/08 06:55:31;;;;;;;8.05;4.00;;;9.90;99.90;;;;;;4942405;28;20517;-78
2022/11/08 06:57:57;;;;;;;9.98;4.30;;;9.90;99.90;;;;;;4952369;28;20042;-78
2022/11/08 07:00:24;;;;;;;9.05;4.40;;;9.90;99.90;;;;;;4957477;28;20039;-78
2022/11/08 07:02:55;;;;;;;9.05;4.22;;;10.00;99.90;;;;;;4935612;28;20041;-79
2022/11/08 07:05:22;;;;;;;11.75;4.50;;;10.00;99.90;;;;;;4961146;28;20062;-79
2022/11/08 07:07:50;;;;;;;10.68;5.68;;;10.10;99.90;;;;;;4944951;28;20126;-79
2022/11/08 07:10:28;;;;;;;8.75;4.97;;;10.10;99.90;;;;;;4943602;28;20035;-79
2022/11/08 07:13:09;;;;;;;9.93;4.90;;;10.10;99.90;;;;;;4949506;28;20085;-79
2022/11/08 07:15:37;;;;;;;7.93;5.25;;;10.20;99.90;;;;;;4943212;28;20054;-79
2022/11/08 07:18:07;;;;;;;8.68;4.47;;;10.20;99.90;;;;;;4951814;28;20460;-78
2022/11/08 07:20:35;;;;;;;9.00;5.07;;;10.20;99.90;;;;;;4958062;28;20043;-78
2022/11/08 07:23:01;;;;;;;6.85;4.85;;;10.30;99.90;;;;;;4936581;28;20036;-78
2022/11/08 07:25:28;;;;;;;7.82;5.13;;;10.20;99.90;;;;;;4943730;28;20085;-78
2022/11/08 07:27:57;;;;;;;9.43;4.70;;;10.20;99.90;;;;;;4940642;29;20497;-78
2022/11/08 07:30:23;;;;;;;8.57;4.95;;;10.20;99.90;;;;;;4943747;28;20035;-78
2022/11/08 07:32:50;;;;;;;9.50;5.43;;;10.20;99.90;;;;;;4945683;28;20527;-78
2022/11/08 07:35:17;;;;;;;9.93;5.28;;;10.20;99.90;;;;;;4948798;28;20034;-78
2022/11/08 07:37:44;;;;;;;9.00;4.90;;;10.30;99.90;;;;;;4965898;28;20102;-78
2022/11/08 07:40:11;;;;;;;8.18;4.85;;;10.30;99.90;;;;;;4949319;28;20125;-78
2022/11/08 07:42:40;;;;;;;7.00;4.88;;;10.30;99.90;;;;;;4937795;28;20452;-80
2022/11/08 07:45:08;;;;;;;9.20;4.80;;;10.40;99.90;;;;;;4942247;28;20092;-78
2022/11/08 07:47:37;;;;;;;7.63;4.20;;;10.40;99.90;;;;;;4940931;28;20038;-78
2022/11/08 07:50:03;;;;;;;9.52;4.10;;;10.40;99.90;;;;;;4958243;28;20035;-77
2022/11/08 07:52:30;;;;;;;6.25;4.00;;;10.50;99.90;;;;;;4940910;28;20035;-77
2022/11/08 07:54:56;;;;;;;7.55;3.90;;;10.50;99.90;;;;;;4948210;28;20034;-78
2022/11/08 07:57:22;;;;;;;8.90;3.72;;;10.60;99.90;;;;;;4956728;28;20035;-78
2022/11/08 07:59:49;;;;;;;6.20;3.55;;;10.60;99.90;;;;;;4933974;28;20129;-78
2022/11/08 08:02:15;;;;;;;5.05;3.55;;;10.70;99.90;;;;;;4940951;28;20042;-77
2022/11/08 08:04:42;;;;;;;5.70;3.60;;;10.80;99.90;;;;;;4934160;28;20275;-77
2022/11/08 08:07:08;;;;;;;9.38;4.45;;;10.90;99.90;;;;;;4940346;28;20030;-77
2022/11/08 08:09:35;;;;;;;4.72;2.95;;;10.90;99.90;;;;;;4940476;28;20046;-77
2022/11/08 08:12:01;;;;;;;7.50;3.53;;;11.00;99.90;;;;;;4941181;28;20047;-77
2022/11/08 08:14:27;;;;;;;5.72;3.20;;;11.10;99.90;;;;;;4957652;28;20042;-77
2022/11/08 08:16:53;;;;;;;5.38;3.28;;;11.10;99.90;;;;;;4950875;28;20121;-78
2022/11/08 08:19:20;;;;;;;6.03;3.50;;;11.20;99.90;;;;;;4939653;28;20173;-77
2022/11/08 08:21:46;;;;;;;5.45;2.72;;;11.20;99.90;;;;;;4946133;28;20382;-77
2022/11/08 08:24:12;;;;;;;6.00;3.50;;;11.30;99.90;;;;;;4940345;28;20034;-77
2022/11/08 08:26:39;;;;;;;6.07;3.20;;;11.30;99.90;;;;;;4939060;28;20043;-77
2022/11/08 08:29:05;;;;;;;6.18;2.75;;;11.40;99.90;;;;;;4939119;28;20219;-77
2022/11/08 08:31:32;;;;;;;6.70;3.15;;;11.40;99.90;;;;;;4948474;28;21978;-77
2022/11/08 08:33:58;;;;;;;10.18;3.47;;;11.50;99.90;;;;;;4942333;28;20039;-77
2022/11/08 08:36:25;;;;;;;5.78;3.03;;;11.50;99.90;;;;;;4933464;28;20043;-77
2022/11/08 08:38:51;;;;;;;4.85;2.42;;;11.60;99.90;;;;;;4939732;28;20128;-77
2022/11/08 08:41:17;;;;;;;5.22;2.92;;;11.60;99.90;;;;;;4939509;28;20050;-77
2022/11/08 08:43:44;;;;;;;4.90;2.83;;;11.60;99.90;;;;;;4939234;28;20522;-77
2022/11/08 08:46:10;;;;;;;4.40;2.78;;;11.70;99.90;;;;;;4940978;28;20489;-76
2022/11/08 08:48:37;;;;;;;6.50;3.10;;;11.70;99.90;;;;;;4939307;28;20364;-77
2022/11/08 08:51:11;;;;;;;5.90;2.60;;;11.80;99.90;;;;;;4955194;28;20485;-77
2022/11/08 08:53:37;;;;;;;5.35;2.75;;;11.80;99.90;;;;;;4939881;28;20039;-76
2022/11/08 08:56:05;;;;;;;4.97;2.63;;;11.90;99.90;;;;;;4956559;28;20047;-77
2022/11/08 08:58:31;;;;;;;4.72;2.70;;;12.00;99.90;;;;;;4947781;28;20041;-77
2022/11/08 09:01:01;;;;;;;5.78;2.67;;;12.00;99.90;;;;;;4951798;28;20102;-77
2022/11/08 09:03:28;;;;;;;5.78;2.65;;;12.20;99.90;;;;;;4939806;28;20074;-79
2022/11/08 09:05:56;;;;;;;4.72;2.28;;;12.30;99.90;;;;;;4937761;28;20050;-78
2022/11/08 09:08:23;;;;;;;5.45;2.42;;;12.40;99.90;;;;;;4942641;28;20524;-77
2022/11/08 09:11:07;;;;;;;5.07;2.72;;;12.40;99.90;;;;;;4949495;28;20401;-76
2022/11/08 09:13:34;;;;;;;5.72;2.40;;;12.50;99.90;;;;;;4953392;28;20042;-77
2022/11/08 09:16:01;;;;;;;4.63;2.13;;;12.50;99.90;;;;;;4937790;28;20045;-77
2022/11/08 09:18:27;;;;;;;5.18;2.78;;;12.60;99.90;;;;;;4944437;28;20117;-77
2022/11/08 09:20:57;;;;;;;4.13;2.22;;;12.70;99.90;;;;;;4932909;28;20167;-77
2022/11/08 09:23:23;;;;;;;4.53;2.78;;;12.70;99.90;;;;;;4947653;28;20047;-77
2022/11/08 09:25:54;;;;;;;3.83;2.10;;;12.80;99.90;;;;;;4955130;28;20035;-77
2022/11/08 09:28:20;;;;;;;4.30;1.95;;;12.80;99.90;;;;;;4969455;28;20401;-77
2022/11/08 09:30:47;;;;;;;4.78;1.98;;;12.80;99.90;;;;;;4932545;28;20074;-77
2022/11/08 09:33:13;;;;;;;3.38;1.90;;;12.90;99.90;;;;;;4941760;28;20077;-78
2022/11/08 09:35:39;;;;;;;4.68;1.85;;;12.90;99.90;;;;;;4954270;28;20049;-77
2022/11/08 09:38:05;;;;;;;2.70;2.05;;;12.90;99.90;;;;;;5000124;23;20033;-76
2022/11/08 09:40:36;;;;;;;4.28;2.13;;;12.90;99.90;;;;;;5019482;28;20475;-77
2022/11/08 09:43:11;;;;;;;4.10;1.92;;;12.90;99.90;;;;;;5029711;28;20048;-76
2022/11/08 09:45:44;;;;;;;5.00;1.95;;;12.90;99.90;;;;;;5036141;28;20064;-76
2022/11/08 09:48:16;;;;;;;;;;;12.90;99.90;;;;;;5017914;28;20045;-78
2022/11/08 09:50:43;;;;;;;2.97;1.73;;;12.90;99.90;;;;;;5014518;28;19917;-76
2022/11/08 09:53:23;;;;;;;2.85;1.65;;;13.00;99.90;;;;;;5005566;28;20041;-76
2022/11/08 09:55:55;;;;;;;2.75;1.90;;;13.00;99.90;;;;;;4997806;28;20038;-76
2022/11/08 09:58:30;;;;;;;2.88;2.13;;;13.10;99.90;;;;;;4997286;28;20053;-78
2022/11/08 10:00:57;;;;;;;3.00;1.90;;;13.10;99.90;;;;;;5030672;28;20124;-76
2022/11/08 10:03:24;;;;;;;3.17;1.98;;;13.10;99.90;;;;;;5011957;28;20045;-75
2022/11/08 10:06:16;;;;;;;5.35;2.20;;;13.10;99.90;;;;;;5030308;28;20384;-75
2022/11/08 10:08:49;;;;;;;4.28;2.00;;;13.10;99.90;;;;;;4996788;28;20037;-74
2022/11/08 10:11:33;;;;;;;;;;;13.20;99.90;;;;;;5027001;28;20042;-76
2022/11/08 10:14:37;;;;;;;3.35;1.95;;;13.20;99.90;;;;;;5007283;28;20188;-75
2022/11/08 10:17:48;;;;;;;3.08;1.95;;;13.30;99.90;;;;;;5019904;28;20061;-77
2022/11/08 10:20:29;;;;;;;4.57;2.20;;;13.30;99.90;;;;;;5024541;28;20045;-75
2022/11/08 10:23:03;;;;;;;4.72;2.33;;;13.30;99.90;;;;;;5011173;28;20444;-76
2022/11/08 10:25:48;;;;;;;2.72;1.80;;;13.30;99.90;;;;;;4996058;28;20033;-76
2022/11/08 10:28:16;;;;;;;3.30;1.80;;;13.30;99.90;;;;;;5028458;28;20124;-75
2022/11/08 10:30:47;;;;;;;3.47;1.83;;;13.30;99.90;;;;;;4995468;28;20098;-76
2022/11/08 10:33:25;;;;;;;2.95;2.30;;;13.30;99.90;;;;;;4986036;28;20034;-76
2022/11/08 10:35:57;;;;;;;4.47;1.75;;;13.20;99.90;;;;;;5029193;28;20037;-76
2022/11/08 10:38:33;;;;;;;3.45;1.98;;;13.20;99.90;;;;;;4979374;28;20072;-76
2022/11/08 10:41:22;;;;;;;2.80;1.80;;;13.10;99.90;;;;;;5003709;28;20068;-76
2022/11/08 10:44:04;;;;;;;3.30;1.90;;;13.10;99.90;;;;;;5004838;28;20049;-76
2022/11/08 10:46:41;;;;;;;3.78;2.13;;;13.00;99.90;;;;;;5009665;28;20033;-76
2022/11/08 10:49:14;;;;;;;3.22;2.05;;;13.00;99.90;;;;;;4985451;28;20125;-76
2022/11/08 10:51:42;;;;;;;3.05;2.25;;;13.00;99.90;;;;;;5011128;28;20033;-76
2022/11/08 10:54:07;;;;;;;5.70;2.00;;;13.00;99.90;;;;;;5013677;28;20547;-76
2022/11/08 10:56:54;;;;;;;3.28;1.88;;;13.00;99.90;;;;;;5013715;28;20041;-76
2022/11/08 10:59:30;;;;;;;5.05;2.63;;;13.00;99.90;;;;;;5009368;28;20112;-76
2022/11/08 11:01:56;;;;;;;4.53;2.00;;;13.10;99.90;;;;;;5010516;28;20056;-77
2022/11/08 11:04:30;;;;;;;3.08;2.00;;;13.10;99.90;;;;;;5012290;28;20120;-77
2022/11/08 11:07:23;;;;;;;4.25;2.15;;;13.20;99.90;;;;;;4982958;28;20034;-76
2022/11/08 11:09:49;;;;;;;3.03;1.77;;;13.30;99.90;;;;;;4992206;28;20074;-76
2022/11/08 11:12:14;;;;;;;3.22;1.90;;;13.40;99.90;;;;;;4974854;28;20065;-75
2022/11/08 11:17:35;;;;;;;3.67;2.00;;;13.50;99.90;;;;;;4961568;28;20038;-76
2022/11/08 11:20:02;;;;;;;4.05;1.80;;;13.60;99.90;;;;;;5012472;28;20030;-76
2022/11/08 11:22:31;;;;;;;3.90;1.73;;;13.70;99.90;;;;;;5011475;28;20045;-76
2022/11/08 11:25:05;;;;;;;3.13;1.85;;;13.80;99.90;;;;;;4996328;28;20034;-76
2022/11/08 11:27:36;;;;;;;4.00;1.95;;;13.80;99.90;;;;;;5011393;28;20029;-76
2022/11/08 11:30:11;;;;;;;4.93;2.30;;;13.80;99.90;;;;;;5012733;28;20053;-76
2022/11/08 11:32:38;;;;;;;5.57;1.90;;;13.80;99.90;;;;;;5009984;28;20068;-76
2022/11/08 11:35:15;;;;;;;3.28;1.70;;;13.80;99.90;;;;;;5012658;28;20089;-77
2022/11/08 11:37:45;;;;;;;4.95;1.80;;;13.80;99.90;;;;;;5017668;28;20124;-76
2022/11/08 11:40:42;;;;;;;3.00;1.80;;;13.80;99.90;;;;;;5021423;28;20081;-76
2022/11/08 11:43:26;;;;;;;5.20;1.95;;;13.80;99.90;;;;;;5013523;28;20038;-76
2022/11/08 11:46:10;;;;;;;4.05;1.88;;;13.80;99.90;;;;;;5024323;28;20037;-76
2022/11/08 11:48:43;;;;;;;4.78;1.73;;;13.80;99.90;;;;;;4982671;28;20026;-76
2022/11/08 11:51:12;;;;;;;;;;;13.90;99.90;;;;;;4979340;28;20516;-76
2022/11/08 11:53:38;;;;;;;4.10;2.00;;;13.90;99.90;;;;;;4993405;28;19924;-76
2022/11/08 11:56:27;;;;;;;3.88;1.98;;;13.80;99.90;;;;;;4981271;28;20044;-76
2022/11/08 11:59:04;;;;;;;3.92;1.50;;;13.90;99.90;;;;;;4988102;28;20081;-76
2022/11/08 12:01:45;;;;;;;3.05;1.70;;;14.00;99.90;;;;;;5003375;28;20129;-76
2022/11/08 12:04:38;;;;;;;2.58;1.52;;;14.00;99.90;;;;;;5017441;28;20118;-76
2022/11/08 12:07:16;;;;;;;3.35;1.75;;;14.00;99.90;;;;;;5009526;28;20038;-76
2022/11/08 12:10:17;;;;;;;4.10;1.73;;;14.10;99.90;;;;;;4986076;28;20045;-76
2022/11/08 12:12:48;;;;;;;3.08;1.77;;;14.10;99.90;;;;;;4994980;28;20038;-77
2022/11/08 12:15:40;;;;;;;3.72;2.00;;;14.10;99.90;;;;;;5001968;28;20117;-76
2022/11/08 12:18:24;;;;;;;3.50;1.65;;;14.10;99.90;;;;;;5011468;28;20038;-76
2022/11/08 12:21:03;;;;;;;5.20;1.83;;;14.10;99.90;;;;;;5010340;28;20045;-75
2022/11/08 12:23:40;;;;;;;3.90;1.70;;;14.00;99.90;;;;;;4976575;28;20034;-75
2022/11/08 12:26:05;;;;;;;4.93;1.40;;;14.00;99.90;;;;;;4987576;28;20045;-76
2022/11/08 12:28:55;;;;;;;2.95;1.70;;;13.90;99.90;;;;;;5019444;28;20037;-76
2022/11/08 12:31:24;;;;;;;3.80;1.50;;;13.90;99.90;;;;;;5012157;28;20042;-76
2022/11/08 12:34:22;;;;;;;3.55;1.52;;;13.80;99.90;;;;;;4998241;28;20103;-75
2022/11/08 12:37:25;;;;;;;5.60;1.77;;;13.80;99.90;;;;;;5020123;28;20479;-76
2022/11/08 12:40:04;;;;;;;4.53;1.70;;;13.70;99.90;;;;;;5036722;28;20033;-76
2022/11/08 12:42:54;;;;;;;4.78;2.00;;;13.70;99.90;;;;;;5021596;28;20037;-76
2022/11/08 12:45:29;;;;;;;4.07;1.75;;;13.70;99.90;;;;;;4996254;28;20045;-75
2022/11/08 12:48:09;;;;;;;3.72;1.85;;;13.70;99.90;;;;;;5033746;28;20466;-76
2022/11/08 12:50:53;;;;;;;5.45;2.08;;;13.70;99.90;;;;;;5006223;28;20071;-76
2022/11/08 12:54:14;;;;;;;3.97;2.00;;;13.80;99.90;;;;;;5016219;28;20037;-75
2022/11/08 12:56:43;;;;;;;2.90;1.55;;;13.80;99.90;;;;;;4998867;28;20060;-75
2022/11/08 12:59:23;;;;;;;4.28;1.70;;;13.90;99.90;;;;;;5008790;28;20034;-75
2022/11/08 13:01:49;;;;;;;2.72;1.80;;;13.90;99.90;;;;;;5021727;28;20034;-75
2022/11/08 13:04:30;;;;;;;3.85;1.73;;;14.00;99.90;;;;;;5048078;28;20044;-75
2022/11/08 13:06:58;;;;;;;1.60;1.40;;;14.10;99.90;;;;;;5015123;28;20496;-76
2022/11/08 13:09:35;;;;;;;3.78;1.58;;;14.30;99.90;;;;;;5000986;28;20492;-75
2022/11/08 13:12:06;;;;;;;3.40;1.58;;;14.30;99.90;;;;;;5010193;28;20045;-75
2022/11/08 13:14:33;;;;;;;3.10;1.63;;;14.40;99.90;;;;;;5014186;28;20045;-76
2022/11/08 13:17:07;;;;;;;6.20;1.80;;;14.40;99.90;;;;;;5010854;28;20045;-75
2022/11/08 13:19:46;;;;;;;5.63;2.10;;;14.40;99.90;;;;;;4994653;28;20053;-75
2022/11/08 13:22:30;;;;;;;2.80;1.48;;;14.30;99.90;;;;;;5014139;28;20388;-75
2022/11/08 13:24:58;;;;;;;2.88;1.65;;;14.30;99.90;;;;;;5013958;28;20037;-76
2022/11/08 13:27:44;;;;;;;4.63;1.80;;;14.30;99.90;;;;;;5010526;28;20441;-75